Time;durP1;ratioP1;P1;durP2;ratioP2;P2;SDS_P1;SDS_P2;PMS_P1;PMS_P2;Temp;Humidity;BMP_temperature;BMP_pressure;BME280_temperature;BME280_humidity;BME280_pressure;Samples;Min_cycle;Max_cycle;Signal;HPM_P1;HPM_P2
2021/10/23 00:00:50;;;;;;;9.23;2.40;;;7.50;99.90;;;;;;5030559;28;20231;-67
2021/10/23 00:03:17;;;;;;;7.43;2.40;;;7.50;99.90;;;;;;5029775;28;20259;-67
2021/10/23 00:05:45;;;;;;;8.32;3.08;;;7.50;99.90;;;;;;5029275;28;20237;-68
2021/10/23 00:08:13;;;;;;;6.03;2.25;;;7.50;99.90;;;;;;5029584;28;20219;-68
2021/10/23 00:10:40;;;;;;;3.45;1.85;;;7.50;99.90;;;;;;5028287;28;20210;-67
2021/10/23 00:13:07;;;;;;;4.40;2.30;;;7.50;99.90;;;;;;5028580;28;20201;-67
2021/10/23 00:15:34;;;;;;;3.55;2.13;;;7.50;99.90;;;;;;5028037;28;20229;-68
2021/10/23 00:18:01;;;;;;;3.42;2.10;;;7.50;99.90;;;;;;5028010;28;20212;-67
2021/10/23 00:20:28;;;;;;;3.15;1.55;;;7.50;99.90;;;;;;5027789;28;20194;-67
2021/10/23 00:22:54;;;;;;;3.08;2.03;;;7.50;99.90;;;;;;5027733;28;20230;-67
2021/10/23 00:25:23;;;;;;;1.90;1.60;;;7.60;99.90;;;;;;5027481;28;20755;-67
2021/10/23 00:27:49;;;;;;;4.68;2.35;;;7.50;99.90;;;;;;5027404;28;20525;-67
2021/10/23 00:30:16;;;;;;;2.03;1.77;;;7.50;99.90;;;;;;5027868;28;20218;-67
2021/10/23 00:32:43;;;;;;;5.93;2.17;;;7.50;99.90;;;;;;5028143;28;20197;-67
2021/10/23 00:35:10;;;;;;;9.32;2.33;;;7.50;99.90;;;;;;5027776;28;20248;-67
2021/10/23 00:37:37;;;;;;;4.45;2.22;;;7.50;99.90;;;;;;5027971;28;20206;-67
2021/10/23 00:40:05;;;;;;;2.65;2.10;;;7.50;99.90;;;;;;5028017;28;20208;-67
2021/10/23 00:42:34;;;;;;;5.45;2.28;;;7.50;99.90;;;;;;5027895;28;20704;-67
2021/10/23 00:45:01;;;;;;;4.70;1.58;;;7.50;99.90;;;;;;5027106;28;20225;-68
2021/10/23 00:47:28;;;;;;;4.15;2.00;;;7.50;99.90;;;;;;5026418;28;20209;-67
2021/10/23 00:49:54;;;;;;;3.70;1.85;;;7.50;99.90;;;;;;5028233;28;20202;-67
2021/10/23 00:52:23;;;;;;;5.20;2.28;;;7.50;99.90;;;;;;5027459;28;20205;-67
2021/10/23 00:54:50;;;;;;;4.82;2.20;;;7.50;99.90;;;;;;5028039;28;20229;-67
2021/10/23 00:57:17;;;;;;;4.05;2.13;;;7.50;99.90;;;;;;5026562;28;20252;-67
2021/10/23 00:59:46;;;;;;;3.22;1.80;;;7.60;99.90;;;;;;5026108;28;20711;-67
2021/10/23 01:02:12;;;;;;;8.80;2.05;;;7.60;99.90;;;;;;5029079;28;20232;-67
2021/10/23 01:04:40;;;;;;;6.85;2.30;;;7.60;99.90;;;;;;5028895;28;20221;-67
2021/10/23 01:07:07;;;;;;;6.53;2.10;;;7.50;99.90;;;;;;5028171;28;20240;-67
2021/10/23 01:09:37;;;;;;;4.00;2.30;;;7.60;99.90;;;;;;5028291;28;20198;-67
2021/10/23 01:12:06;;;;;;;3.03;1.80;;;7.60;99.90;;;;;;5028540;28;20205;-67
2021/10/23 01:14:33;;;;;;;3.80;1.65;;;7.60;99.90;;;;;;5027230;28;20256;-67
2021/10/23 01:17:01;;;;;;;4.90;1.90;;;7.60;99.90;;;;;;5028452;28;20205;-67
2021/10/23 01:19:28;;;;;;;5.10;2.53;;;7.60;99.90;;;;;;5027783;28;20217;-67
2021/10/23 01:21:56;;;;;;;3.80;2.10;;;7.60;99.90;;;;;;5028418;28;20205;-67
2021/10/23 01:24:24;;;;;;;8.05;2.75;;;7.60;99.90;;;;;;5027809;28;20212;-67
2021/10/23 01:26:51;;;;;;;3.65;2.40;;;7.60;99.90;;;;;;5031727;28;20634;-67
2021/10/23 01:29:19;;;;;;;4.25;2.38;;;7.60;99.90;;;;;;5029837;28;20212;-67
2021/10/23 01:31:48;;;;;;;3.47;2.13;;;7.60;99.90;;;;;;5030033;28;20214;-67
2021/10/23 01:34:17;;;;;;;5.18;2.22;;;7.60;99.90;;;;;;5028557;28;20198;-67
2021/10/23 01:36:45;;;;;;;3.42;2.50;;;7.60;99.90;;;;;;5028022;28;20224;-67
2021/10/23 01:39:14;;;;;;;5.15;2.03;;;7.60;99.90;;;;;;5029166;28;20592;-67
2021/10/23 01:41:41;;;;;;;4.05;2.30;;;7.60;99.90;;;;;;5040440;28;20224;-68
2021/10/23 01:44:09;;;;;;;4.60;2.13;;;7.60;99.90;;;;;;5047946;28;20232;-67
2021/10/23 01:46:36;;;;;;;3.85;2.15;;;7.60;99.90;;;;;;5045098;28;20225;-67
2021/10/23 01:49:04;;;;;;;3.53;2.20;;;7.60;99.90;;;;;;5048439;28;20204;-68
2021/10/23 01:51:31;;;;;;;4.57;2.42;;;7.60;99.90;;;;;;5048706;28;20219;-67
2021/10/23 01:53:58;;;;;;;5.45;2.28;;;7.60;99.90;;;;;;5048218;28;20201;-67
2021/10/23 01:56:26;;;;;;;5.13;2.35;;;7.60;99.90;;;;;;5048945;28;20228;-69
2021/10/23 01:58:53;;;;;;;4.07;2.35;;;7.60;99.90;;;;;;5076035;22;20232;-93
2021/10/23 02:01:20;;;;;;;4.40;1.95;;;7.60;99.90;;;;;;5051178;28;20292;-93
2021/10/23 02:03:47;;;;;;;6.40;2.15;;;7.60;99.90;;;;;;5054896;28;20231;-92
2021/10/23 02:06:14;;;;;;;4.18;2.25;;;7.60;99.90;;;;;;5034694;28;20193;-92
2021/10/23 02:08:41;;;;;;;2.17;1.98;;;7.60;99.90;;;;;;5033892;28;20226;-92
2021/10/23 02:11:07;;;;;;;6.80;1.90;;;7.70;99.90;;;;;;5045093;28;20204;-92
2021/10/23 02:13:36;;;;;;;4.70;2.28;;;7.60;99.90;;;;;;5047941;28;20212;-93
2021/10/23 02:16:03;;;;;;;5.47;2.72;;;7.60;99.90;;;;;;5053246;28;20201;-93
2021/10/23 02:18:30;;;;;;;8.05;2.40;;;7.60;99.90;;;;;;5053537;28;20228;-92
2021/10/23 02:20:58;;;;;;;2.92;2.20;;;7.60;99.90;;;;;;5053976;28;20646;-92
2021/10/23 02:23:25;;;;;;;5.88;2.20;;;7.60;99.90;;;;;;5050522;28;20209;-93
2021/10/23 02:25:52;;;;;;;6.22;2.40;;;7.60;99.90;;;;;;5046045;28;20201;-93
2021/10/23 02:28:19;;;;;;;2.72;1.95;;;7.60;99.90;;;;;;5035958;28;20244;-93
2021/10/23 02:30:47;;;;;;;2.92;1.90;;;7.50;99.90;;;;;;5036894;28;20201;-93
2021/10/23 02:33:14;;;;;;;3.17;2.00;;;7.60;99.90;;;;;;5035047;28;20202;-94
2021/10/23 02:35:41;;;;;;;5.03;2.10;;;7.50;99.90;;;;;;5034321;28;20216;-92
2021/10/23 02:38:10;;;;;;;5.97;2.28;;;7.40;99.90;;;;;;5033723;28;20304;-92
2021/10/23 02:40:37;;;;;;;4.25;1.83;;;7.40;99.90;;;;;;5033986;28;20208;-92
2021/10/23 02:43:04;;;;;;;3.65;2.20;;;7.40;99.90;;;;;;5034289;28;20304;-93
2021/10/23 02:45:31;;;;;;;6.43;2.45;;;7.20;99.90;;;;;;5033829;28;20210;-93
2021/10/23 02:48:00;;;;;;;6.25;2.10;;;7.10;99.90;;;;;;5034104;28;20229;-92
2021/10/23 02:50:27;;;;;;;4.55;2.30;;;7.10;99.90;;;;;;5033898;28;20210;-92
2021/10/23 02:52:54;;;;;;;2.75;1.88;;;7.10;99.90;;;;;;5034186;28;20198;-93
2021/10/23 02:55:21;;;;;;;4.40;2.15;;;7.10;99.90;;;;;;5034592;28;20259;-92
2021/10/23 02:57:49;;;;;;;5.30;2.38;;;7.10;99.90;;;;;;5034770;28;20233;-93
2021/10/23 03:00:16;;;;;;;3.40;2.63;;;7.00;99.90;;;;;;5034428;28;20216;-93
2021/10/23 03:02:43;;;;;;;4.95;2.13;;;7.00;99.90;;;;;;5035008;28;20201;-93
2021/10/23 03:05:11;;;;;;;2.97;1.90;;;7.00;99.90;;;;;;5034104;28;20228;-92
2021/10/23 03:07:38;;;;;;;3.60;2.30;;;7.00;99.90;;;;;;5034826;28;20233;-92
2021/10/23 03:10:05;;;;;;;3.75;2.30;;;6.90;99.90;;;;;;5038132;28;20212;-93
2021/10/23 03:12:32;;;;;;;2.85;1.90;;;6.90;99.90;;;;;;5039355;28;20673;-92
2021/10/23 03:14:59;;;;;;;3.58;1.85;;;6.90;99.90;;;;;;5038768;28;20224;-93
2021/10/23 03:17:26;;;;;;;4.88;2.00;;;6.90;99.90;;;;;;5038164;28;20272;-93
2021/10/23 03:19:53;;;;;;;6.40;2.60;;;6.90;99.90;;;;;;5039025;28;20202;-92
2021/10/23 03:22:21;;;;;;;2.15;1.60;;;6.90;99.90;;;;;;5039725;28;20212;-93
2021/10/23 03:24:48;;;;;;;2.70;1.90;;;6.90;99.90;;;;;;5041347;28;20705;-93
2021/10/23 03:27:17;;;;;;;5.20;2.63;;;6.90;99.90;;;;;;5044060;28;20232;-92
2021/10/23 03:29:45;;;;;;;6.07;2.45;;;6.90;99.90;;;;;;5051508;28;20216;-94
2021/10/23 03:32:12;;;;;;;4.50;1.95;;;6.90;99.90;;;;;;5045708;28;20204;-93
2021/10/23 03:34:39;;;;;;;6.00;2.47;;;6.90;99.90;;;;;;5037041;28;20665;-92
2021/10/23 03:37:06;;;;;;;3.28;2.42;;;6.90;99.90;;;;;;5037698;28;20202;-94
2021/10/23 03:39:34;;;;;;;3.72;2.50;;;6.90;99.90;;;;;;5037724;28;20663;-92
2021/10/23 03:42:01;;;;;;;3.38;1.98;;;6.90;99.90;;;;;;5037863;28;20206;-92
2021/10/23 03:44:28;;;;;;;6.07;2.72;;;6.90;99.90;;;;;;5038026;28;20232;-93
2021/10/23 03:46:55;;;;;;;3.65;2.25;;;6.90;99.90;;;;;;5036939;28;20205;-93
2021/10/23 03:49:22;;;;;;;5.50;1.98;;;6.90;99.90;;;;;;5037456;28;20201;-92
2021/10/23 03:51:49;;;;;;;3.60;2.28;;;6.90;99.90;;;;;;5037419;28;20212;-92
2021/10/23 03:54:16;;;;;;;2.80;1.75;;;6.90;99.90;;;;;;5038052;28;20202;-93
2021/10/23 03:56:44;;;;;;;5.70;2.28;;;6.90;99.90;;;;;;5036277;28;20212;-93
2021/10/23 03:59:12;;;;;;;4.70;2.05;;;6.90;99.90;;;;;;5036168;28;20238;-92
2021/10/23 04:01:38;;;;;;;2.42;2.13;;;6.90;99.90;;;;;;5036896;28;20206;-92
2021/10/23 04:04:05;;;;;;;2.50;2.17;;;6.90;99.90;;;;;;5036618;28;20222;-92
2021/10/23 04:06:32;;;;;;;2.53;2.10;;;6.80;99.90;;;;;;5036981;28;20667;-92
2021/10/23 04:08:59;;;;;;;4.50;2.53;;;6.80;99.90;;;;;;5037187;28;20259;-92
2021/10/23 04:11:26;;;;;;;3.22;1.90;;;6.70;99.90;;;;;;5039081;28;20201;-93
2021/10/23 04:13:54;;;;;;;5.03;2.53;;;6.80;99.90;;;;;;5037504;28;20208;-93
2021/10/23 04:16:21;;;;;;;2.67;1.90;;;6.80;99.90;;;;;;5036782;28;20210;-92
2021/10/23 04:18:48;;;;;;;3.45;1.98;;;6.80;99.90;;;;;;5037700;28;20229;-92
2021/10/23 04:21:15;;;;;;;6.82;2.03;;;6.80;99.90;;;;;;5037481;28;20206;-93
2021/10/23 04:23:42;;;;;;;3.15;2.20;;;6.80;99.90;;;;;;5037480;28;20271;-92
2021/10/23 04:26:09;;;;;;;3.25;2.25;;;6.70;99.90;;;;;;5037473;28;20281;-92
2021/10/23 04:28:37;;;;;;;3.53;2.40;;;6.80;99.90;;;;;;5041690;28;20614;-92
2021/10/23 04:31:05;;;;;;;2.60;1.83;;;6.90;99.90;;;;;;5042040;28;20248;-92
2021/10/23 04:33:32;;;;;;;2.28;1.98;;;7.00;99.90;;;;;;5040633;28;20207;-93
2021/10/23 04:35:59;;;;;;;3.25;2.17;;;7.00;99.90;;;;;;5040894;28;20208;-93
2021/10/23 04:41:07;;;;;;;4.13;2.30;;;6.80;99.90;;;;;;5041721;28;20655;-95
2021/10/23 04:43:34;;;;;;;4.53;2.15;;;6.70;99.90;;;;;;5041127;28;20243;-95
2021/10/23 04:46:01;;;;;;;4.80;2.30;;;6.60;99.90;;;;;;5041521;28;20297;-95
2021/10/23 04:48:30;;;;;;;3.40;2.28;;;6.50;99.90;;;;;;5041163;28;20236;-92
2021/10/23 04:50:57;;;;;;;5.32;2.20;;;6.50;99.90;;;;;;5041036;28;20213;-92
2021/10/23 04:53:23;;;;;;;4.03;2.60;;;6.50;99.90;;;;;;5040716;28;20204;-93
2021/10/23 04:55:50;;;;;;;4.85;2.70;;;6.50;99.90;;;;;;5040814;28;20209;-96
2021/10/23 04:58:17;;;;;;;2.75;2.20;;;6.50;99.90;;;;;;5052641;28;20308;-93
2021/10/23 05:00:44;;;;;;;4.78;2.72;;;6.50;99.90;;;;;;5059309;28;20205;-96
2021/10/23 05:03:11;;;;;;;3.47;2.42;;;6.50;99.90;;;;;;5061428;28;20224;-95
2021/10/23 05:05:40;;;;;;;4.25;2.95;;;6.50;99.90;;;;;;5062045;28;20208;-95
2021/10/23 05:08:06;;;;;;;5.80;2.50;;;6.50;99.90;;;;;;5067149;28;20217;-93
2021/10/23 05:10:33;;;;;;;4.82;2.40;;;6.50;99.90;;;;;;5066496;28;20209;-93
2021/10/23 05:13:00;;;;;;;5.15;2.78;;;6.40;99.90;;;;;;5067230;28;20204;-93
2021/10/23 05:15:28;;;;;;;2.97;2.28;;;6.40;99.90;;;;;;5066645;28;20264;-96
2021/10/23 05:17:55;;;;;;;3.00;2.20;;;6.40;99.90;;;;;;5067268;28;20228;-95
2021/10/23 05:20:22;;;;;;;4.70;2.25;;;6.40;99.90;;;;;;5066253;28;20276;-95
2021/10/23 05:22:51;;;;;;;3.20;2.40;;;6.40;99.90;;;;;;5061452;28;20185;-96
2021/10/23 05:25:18;;;;;;;2.80;2.40;;;6.40;99.90;;;;;;5057553;28;20281;-95
2021/10/23 05:27:45;;;;;;;4.18;2.25;;;6.40;99.90;;;;;;5054098;28;20290;-95
2021/10/23 05:30:12;;;;;;;3.35;2.40;;;6.40;99.90;;;;;;5075593;28;20199;-94
2021/10/23 05:32:39;;;;;;;2.92;2.50;;;6.40;99.90;;;;;;5066808;28;20251;-92
2021/10/23 05:35:07;;;;;;;3.17;2.25;;;6.50;99.90;;;;;;5061195;28;20201;-94
2021/10/23 05:37:34;;;;;;;3.63;2.40;;;6.50;99.90;;;;;;5059484;28;20767;-92
2021/10/23 05:40:03;;;;;;;2.67;2.40;;;6.50;99.90;;;;;;5060114;28;20224;-93
2021/10/23 05:42:30;;;;;;;5.00;2.47;;;6.50;99.90;;;;;;5055337;28;20247;-92
2021/10/23 05:44:57;;;;;;;3.88;2.50;;;6.50;99.90;;;;;;5048834;28;20217;-93
2021/10/23 05:47:24;;;;;;;2.65;2.03;;;6.50;99.90;;;;;;5050884;28;20296;-94
2021/10/23 05:49:51;;;;;;;5.18;3.05;;;6.50;99.90;;;;;;5047843;28;20229;-92
2021/10/23 05:52:18;;;;;;;2.42;2.15;;;6.60;99.90;;;;;;5043302;28;20204;-95
2021/10/23 05:54:46;;;;;;;3.50;2.40;;;6.50;99.90;;;;;;5042354;28;20209;-94
2021/10/23 05:57:46;;;;;;;2.80;2.55;;;6.60;99.90;;;;;;5060327;28;20307;-95
2021/10/23 06:05:53;;;;;;;3.85;2.15;;;6.60;99.90;;;;;;5045907;28;20590;-94
2021/10/23 06:08:21;;;;;;;7.80;3.17;;;6.70;99.90;;;;;;5058972;28;20251;-95
2021/10/23 06:10:49;;;;;;;8.23;2.55;;;6.60;99.90;;;;;;5058860;28;20205;-94
2021/10/23 06:13:18;;;;;;;3.17;2.38;;;6.70;99.90;;;;;;5059653;28;20274;-93
2021/10/23 06:15:47;;;;;;;3.53;2.58;;;6.80;99.90;;;;;;5058442;28;20193;-94
2021/10/23 06:18:16;;;;;;;3.30;2.20;;;6.80;99.90;;;;;;5060196;28;20220;-93
2021/10/23 06:20:51;;;;;;;4.25;2.40;;;6.80;99.90;;;;;;5061457;28;20209;-95
2021/10/23 06:26:04;;;;;;;2.35;2.15;;;6.80;99.90;;;;;;5058086;28;20208;-93
2021/10/23 06:28:36;;;;;;;4.25;2.30;;;6.90;99.90;;;;;;5061578;28;20296;-93
2021/10/23 06:31:05;;;;;;;2.42;2.15;;;6.90;99.90;;;;;;5062111;28;20575;-93
2021/10/23 06:33:32;;;;;;;6.38;2.65;;;6.90;99.90;;;;;;5063105;28;20603;-94
2021/10/23 06:35:59;;;;;;;3.38;2.35;;;6.90;99.90;;;;;;5062393;28;20303;-92
2021/10/23 06:38:26;;;;;;;2.92;2.65;;;7.00;99.90;;;;;;5058216;28;20235;-93
2021/10/23 06:40:53;;;;;;;4.13;2.45;;;6.90;99.90;;;;;;5057842;28;20336;-92
2021/10/23 06:43:19;;;;;;;3.60;2.20;;;7.00;99.90;;;;;;5057621;28;20235;-92
2021/10/23 06:45:48;;;;;;;7.75;2.58;;;7.10;99.90;;;;;;5063229;28;20227;-93
2021/10/23 06:48:16;;;;;;;4.72;2.47;;;7.10;99.90;;;;;;5066122;28;20220;-92
2021/10/23 06:50:43;;;;;;;3.17;2.17;;;7.00;99.90;;;;;;5070125;28;20189;-92
2021/10/23 06:53:11;;;;;;;3.10;2.20;;;7.00;99.90;;;;;;5073959;28;20208;-92
2021/10/23 06:55:37;;;;;;;4.65;2.60;;;7.00;99.90;;;;;;5061031;28;20496;-92
2021/10/23 06:58:04;;;;;;;3.50;2.55;;;7.00;99.90;;;;;;5060599;28;20221;-92
2021/10/23 07:00:31;;;;;;;4.18;2.47;;;7.00;99.90;;;;;;5063534;28;20215;-92
2021/10/23 07:02:58;;;;;;;2.70;2.05;;;7.00;99.90;;;;;;5068331;28;20212;-92
2021/10/23 07:05:27;;;;;;;4.32;2.35;;;7.00;99.90;;;;;;5061590;28;20220;-92
2021/10/23 07:07:53;;;;;;;2.80;2.30;;;7.10;99.90;;;;;;5060667;28;20225;-92
2021/10/23 07:10:20;;;;;;;4.03;2.72;;;7.10;99.90;;;;;;5060607;28;20197;-92
2021/10/23 07:12:47;;;;;;;2.50;2.15;;;7.10;99.90;;;;;;5060795;28;20216;-92
2021/10/23 07:15:14;;;;;;;8.70;2.55;;;7.20;99.90;;;;;;5060420;28;20197;-92
2021/10/23 07:17:42;;;;;;;5.90;2.20;;;7.20;99.90;;;;;;5060075;28;20231;-92
2021/10/23 07:20:10;;;;;;;3.05;2.42;;;7.20;99.90;;;;;;5060134;28;20295;-92
2021/10/23 07:22:38;;;;;;;4.00;2.80;;;7.30;99.90;;;;;;5050291;28;20665;-92
2021/10/23 07:25:06;;;;;;;2.53;1.90;;;7.30;99.90;;;;;;5055809;28;20209;-91
2021/10/23 07:27:34;;;;;;;3.70;2.40;;;7.40;99.90;;;;;;5051749;28;20221;-92
2021/10/23 07:30:02;;;;;;;4.55;2.72;;;7.40;99.90;;;;;;5061874;28;20222;-93
2021/10/23 07:32:29;;;;;;;3.67;2.47;;;7.50;99.90;;;;;;5058679;28;20300;-92
2021/10/23 07:35:08;;;;;;;4.90;2.22;;;7.50;99.90;;;;;;5058600;28;20263;-94
2021/10/23 07:37:35;;;;;;;2.40;2.00;;;7.60;99.90;;;;;;5038696;28;20240;-92
2021/10/23 07:40:09;;;;;;;6.53;2.30;;;7.60;99.90;;;;;;5040557;28;20205;-90
2021/10/23 07:46:30;;;;;;;2.95;2.25;;;8.10;99.90;;;;;;5000847;28;20226;-92
2021/10/23 07:58:21;;;;;;;4.78;2.28;;;10.10;99.90;;;;;;5057068;28;20225;-92
2021/10/23 09:02:28;;;;;;;4.67;2.40;;;14.10;99.90;;;;;;4924058;29;20481;-93
2021/10/23 09:18:17;;;;;;;6.50;2.10;;;14.40;99.90;;;;;;4959624;22;20567;-71
2021/10/23 09:20:44;;;;;;;8.17;2.53;;;14.60;99.90;;;;;;5090640;28;20845;-71
2021/10/23 09:23:16;;;;;;;6.03;2.60;;;14.70;99.90;;;;;;5090769;28;20464;-69
2021/10/23 09:25:43;;;;;;;6.20;2.80;;;14.80;99.90;;;;;;5090182;28;20485;-71
2021/10/23 09:28:12;;;;;;;2.80;2.40;;;15.00;99.90;;;;;;5092764;28;20468;-70
2021/10/23 09:30:42;;;;;;;4.80;2.50;;;15.20;99.90;;;;;;5078939;28;20575;-69
2021/10/23 09:33:11;;;;;;;3.10;2.07;;;15.40;99.90;;;;;;5071458;28;20469;-69
2021/10/23 09:35:41;;;;;;;4.43;2.20;;;15.60;99.90;;;;;;5071810;28;20480;-69
2021/10/23 09:38:10;;;;;;;2.70;2.07;;;15.70;99.90;;;;;;5071234;28;20470;-69
2021/10/23 09:40:39;;;;;;;3.87;2.37;;;15.80;99.90;;;;;;5071692;28;20481;-69
2021/10/23 09:43:15;;;;;;;4.23;2.10;;;15.80;99.90;;;;;;5070762;28;20460;-69
2021/10/23 09:46:06;;;;;;;5.90;2.37;;;15.90;99.90;;;;;;5071136;28;20926;-69
2021/10/23 09:48:34;;;;;;;4.97;2.47;;;16.20;99.90;;;;;;5091402;28;20851;-71
2021/10/23 09:51:13;;;;;;;6.13;3.47;;;16.10;99.90;;;;;;5091288;28;20973;-71
2021/10/23 09:53:45;;;;;;;4.57;2.27;;;16.20;99.90;;;;;;5072681;28;20985;-70
2021/10/23 09:56:15;;;;;;;3.60;1.80;;;16.30;99.90;;;;;;5070498;28;20517;-70
2021/10/23 09:58:56;;;;;;;4.40;1.80;;;16.60;99.90;;;;;;5071037;28;20957;-70
2021/10/23 10:01:26;;;;;;;3.30;1.87;;;16.90;99.90;;;;;;5071051;28;20564;-70
2021/10/23 10:03:54;;;;;;;5.90;1.97;;;17.00;99.90;;;;;;5071402;28;20493;-70
2021/10/23 10:06:23;;;;;;;3.27;1.50;;;17.10;99.90;;;;;;5070577;28;20483;-70
2021/10/23 10:08:52;;;;;;;5.33;2.00;;;17.50;99.90;;;;;;5071024;28;20532;-70
2021/10/23 10:11:20;;;;;;;2.23;1.80;;;17.70;99.90;;;;;;5070918;28;20484;-71
2021/10/23 10:13:48;;;;;;;2.40;1.93;;;17.60;99.80;;;;;;5071012;28;20462;-70
2021/10/23 10:16:16;;;;;;;3.70;2.20;;;17.60;99.90;;;;;;5070433;28;20477;-69
2021/10/23 10:18:46;;;;;;;3.50;2.07;;;17.50;99.90;;;;;;5070557;28;20462;-70
2021/10/23 10:21:16;;;;;;;4.93;2.53;;;17.10;99.90;;;;;;5070822;28;20500;-70
2021/10/23 10:23:48;;;;;;;4.47;1.93;;;16.20;99.90;;;;;;5071170;28;20516;-70
2021/10/23 10:26:32;;;;;;;4.50;2.20;;;15.50;99.90;;;;;;5069538;28;20491;-70
2021/10/23 10:29:26;;;;;;;3.03;2.10;;;14.80;99.90;;;;;;5070533;28;20561;-70
2021/10/23 10:31:57;;;;;;;4.27;2.23;;;14.40;99.90;;;;;;5070357;28;20459;-70
2021/10/23 10:35:19;;;;;;;2.20;1.80;;;13.90;99.90;;;;;;5071880;28;20454;-69
2021/10/23 10:44:15;;;;;;;6.27;2.70;;;12.90;99.90;;;;;;5071051;28;20513;-70
2021/10/23 10:47:07;;;;;;;4.10;2.50;;;12.80;99.90;;;;;;5069678;28;20517;-70
2021/10/23 10:49:55;;;;;;;2.50;2.27;;;12.60;99.90;;;;;;5070218;28;20855;-70
2021/10/23 10:53:03;;;;;;;3.00;2.30;;;12.50;99.90;;;;;;5063930;28;20458;-70
2021/10/23 10:55:41;;;;;;;4.50;2.30;;;12.30;99.90;;;;;;5068304;28;20478;-70
2021/10/23 10:58:13;;;;;;;5.97;2.30;;;12.10;99.90;;;;;;5070214;28;20465;-69
2021/10/23 11:01:20;;;;;;;2.33;2.13;;;12.10;99.90;;;;;;5069702;28;20459;-70
2021/10/23 11:04:03;;;;;;;6.33;2.63;;;12.30;99.90;;;;;;5059400;28;20210;-69
2021/10/23 11:06:52;;;;;;;2.57;1.83;;;13.40;99.90;;;;;;5069778;28;20494;-70
2021/10/23 11:09:31;;;;;;;2.60;1.87;;;15.00;99.90;;;;;;5070715;28;20494;-70
2021/10/23 11:12:17;;;;;;;3.00;2.30;;;16.30;99.90;;;;;;5071695;28;20909;-70
2021/10/23 11:14:45;;;;;;;3.80;1.87;;;17.10;99.90;;;;;;5070347;28;20462;-70
2021/10/23 11:17:16;;;;;;;3.47;2.00;;;17.80;99.80;;;;;;5068315;28;20992;-70
2021/10/23 11:19:45;;;;;;;5.00;2.40;;;18.50;98.60;;;;;;5069286;28;20474;-71
2021/10/23 11:22:14;;;;;;;5.40;2.10;;;18.80;98.60;;;;;;5064207;28;21238;-70
2021/10/23 11:24:43;;;;;;;3.23;2.03;;;18.50;98.60;;;;;;5067650;28;21323;-70
2021/10/23 11:27:11;;;;;;;4.00;2.50;;;17.90;99.70;;;;;;5067270;28;20459;-70
2021/10/23 11:29:40;;;;;;;3.80;2.70;;;17.40;99.90;;;;;;5070787;28;20983;-70
2021/10/23 11:32:08;;;;;;;4.67;2.13;;;16.80;99.90;;;;;;5073961;28;20485;-70
2021/10/23 11:34:36;;;;;;;6.00;2.63;;;16.70;99.90;;;;;;5087957;28;20461;-70
2021/10/23 11:37:05;;;;;;;3.70;2.30;;;16.80;99.90;;;;;;5092832;28;20458;-70
2021/10/23 11:39:35;;;;;;;3.23;2.23;;;17.30;99.90;;;;;;5094182;28;20544;-69
2021/10/23 11:42:18;;;;;;;3.77;2.50;;;17.50;99.30;;;;;;5075601;28;20923;-68
2021/10/23 11:44:45;;;;;;;2.40;2.00;;;17.20;99.50;;;;;;5072192;28;20458;-70
2021/10/23 11:47:17;;;;;;;5.70;2.57;;;16.70;99.80;;;;;;5072233;28;20482;-68
2021/10/23 11:49:44;;;;;;;4.13;2.30;;;16.00;99.90;;;;;;5073334;28;20466;-69
2021/10/23 11:52:11;;;;;;;5.50;2.40;;;15.50;99.90;;;;;;5072347;28;20581;-69
2021/10/23 11:54:43;;;;;;;4.60;2.10;;;15.00;99.90;;;;;;5072215;28;20458;-69
2021/10/23 11:57:11;;;;;;;4.17;2.17;;;14.50;99.90;;;;;;5071567;28;20519;-69
2021/10/23 11:59:38;;;;;;;4.87;2.30;;;14.20;99.90;;;;;;5072133;28;20463;-69
2021/10/23 12:02:14;;;;;;;4.03;2.50;;;13.90;99.90;;;;;;5072148;28;20454;-69
2021/10/23 12:04:44;;;;;;;4.60;2.23;;;13.70;99.90;;;;;;5072233;28;20515;-68
2021/10/23 12:07:33;;;;;;;4.17;2.23;;;13.60;99.90;;;;;;5071202;28;20489;-69
2021/10/23 12:10:05;;;;;;;3.27;2.30;;;13.40;99.90;;;;;;5072100;28;20965;-68
2021/10/23 12:12:34;;;;;;;3.40;2.20;;;13.20;99.90;;;;;;5071946;28;20455;-68
2021/10/23 12:15:15;;;;;;;3.87;2.57;;;13.20;99.90;;;;;;5071417;28;20483;-69
2021/10/23 12:17:42;;;;;;;3.60;2.30;;;13.10;99.90;;;;;;5071138;28;20458;-68
2021/10/23 12:20:16;;;;;;;2.37;2.17;;;13.00;99.90;;;;;;5071668;28;20467;-68
2021/10/23 12:22:43;;;;;;;4.97;2.37;;;13.00;99.90;;;;;;5072230;28;20463;-69
2021/10/23 12:25:11;;;;;;;3.20;2.10;;;13.10;99.90;;;;;;5070972;28;20489;-69
2021/10/23 12:27:38;;;;;;;2.93;2.00;;;13.40;99.90;;;;;;5071723;28;20466;-69
2021/10/23 12:30:10;;;;;;;3.00;1.73;;;13.90;99.90;;;;;;5072244;28;20549;-69
2021/10/23 12:32:40;;;;;;;2.83;2.13;;;14.20;99.90;;;;;;5073068;28;20892;-70
2021/10/23 12:35:10;;;;;;;3.10;2.30;;;14.40;99.90;;;;;;5072584;28;21011;-70
2021/10/23 12:37:44;;;;;;;2.10;1.80;;;14.90;99.90;;;;;;5072057;28;20490;-70
2021/10/23 12:40:15;;;;;;;2.73;2.10;;;15.40;99.90;;;;;;5073190;28;20832;-70
2021/10/23 12:42:46;;;;;;;4.63;2.33;;;15.90;99.90;;;;;;5072017;28;20469;-69
2021/10/23 12:45:15;;;;;;;6.90;2.60;;;16.20;99.90;;;;;;5072375;28;20479;-69
2021/10/23 12:47:42;;;;;;;4.50;2.30;;;16.60;99.90;;;;;;5073234;28;20459;-69
2021/10/23 12:50:11;;;;;;;2.67;2.23;;;16.90;99.90;;;;;;5072977;28;20980;-70
2021/10/23 12:52:42;;;;;;;2.83;2.13;;;17.20;99.70;;;;;;5073324;28;20541;-70
2021/10/23 12:55:10;;;;;;;5.03;2.33;;;17.20;99.60;;;;;;5071499;28;20478;-68
2021/10/23 12:57:37;;;;;;;2.80;2.43;;;17.30;99.90;;;;;;5071930;28;20462;-68
2021/10/23 13:00:05;;;;;;;6.00;2.17;;;17.50;99.60;;;;;;5071388;28;21001;-69
2021/10/23 13:02:32;;;;;;;5.67;2.30;;;17.60;98.90;;;;;;5071925;28;20462;-69
2021/10/23 13:04:58;;;;;;;4.53;2.57;;;17.60;98.70;;;;;;5071127;28;20489;-69
2021/10/23 13:07:25;;;;;;;5.00;2.00;;;17.50;99.00;;;;;;5070540;28;20550;-69
2021/10/23 13:09:53;;;;;;;2.83;2.20;;;17.50;98.90;;;;;;5070950;28;20455;-69
2021/10/23 13:12:20;;;;;;;2.50;1.93;;;17.50;98.60;;;;;;5071318;28;20454;-69
2021/10/23 13:14:47;;;;;;;3.77;2.03;;;17.60;98.60;;;;;;5070650;28;20459;-69
2021/10/23 13:17:14;;;;;;;3.47;1.93;;;17.20;97.20;;;;;;5070369;28;20494;-68
2021/10/23 13:19:41;;;;;;;4.70;2.00;;;16.70;98.90;;;;;;5071102;28;20473;-69
2021/10/23 13:22:09;;;;;;;3.57;2.17;;;16.10;98.10;;;;;;5068265;28;20458;-69
2021/10/23 13:24:36;;;;;;;4.10;2.33;;;15.50;99.50;;;;;;5070923;28;20477;-70
2021/10/23 13:27:04;;;;;;;3.17;2.43;;;15.10;99.40;;;;;;5065433;28;20844;-70
2021/10/23 13:29:32;;;;;;;3.20;2.27;;;14.70;99.60;;;;;;5070518;28;20473;-70
2021/10/23 13:32:02;;;;;;;2.33;2.10;;;14.50;99.90;;;;;;5070660;28;20459;-70
2021/10/23 13:34:29;;;;;;;2.80;2.23;;;14.30;99.90;;;;;;5070825;28;20470;-70
2021/10/23 13:36:56;;;;;;;6.30;2.10;;;14.10;99.90;;;;;;5069649;28;20504;-70
2021/10/23 13:39:24;;;;;;;4.20;2.17;;;13.90;99.90;;;;;;5070316;28;20890;-69
2021/10/23 13:41:51;;;;;;;4.37;1.90;;;13.80;99.90;;;;;;5070617;28;20833;-70
2021/10/23 13:44:21;;;;;;;2.97;2.23;;;13.80;99.90;;;;;;5070319;28;20889;-70
2021/10/23 13:46:48;;;;;;;3.47;1.87;;;13.80;99.90;;;;;;5070298;28;21019;-70
2021/10/23 13:49:16;;;;;;;2.53;1.73;;;13.80;99.90;;;;;;5070593;28;20455;-71
2021/10/23 13:51:43;;;;;;;2.80;2.10;;;13.80;99.90;;;;;;5071295;28;20954;-70
2021/10/23 13:54:11;;;;;;;3.23;2.20;;;13.80;99.90;;;;;;5069286;28;20462;-70
2021/10/23 13:56:39;;;;;;;3.30;2.40;;;13.90;99.90;;;;;;5070800;28;20482;-69
2021/10/23 13:59:06;;;;;;;4.00;2.83;;;13.90;99.90;;;;;;5071409;28;20570;-69
2021/10/23 14:01:35;;;;;;;4.47;2.30;;;13.80;99.90;;;;;;5063280;28;21025;-69
2021/10/23 14:04:02;;;;;;;5.47;2.03;;;13.70;99.90;;;;;;5078595;28;20994;-70
2021/10/23 14:06:30;;;;;;;3.80;2.33;;;13.50;99.90;;;;;;5091443;28;20508;-70
2021/10/23 14:08:57;;;;;;;3.50;2.67;;;13.30;99.90;;;;;;5091239;28;20457;-70
2021/10/23 14:11:25;;;;;;;4.00;2.23;;;13.10;99.90;;;;;;5091858;28;20482;-70
2021/10/23 14:13:52;;;;;;;3.10;2.33;;;13.00;99.90;;;;;;5071824;28;20459;-70
2021/10/23 14:16:19;;;;;;;3.93;2.07;;;12.90;99.90;;;;;;5072687;28;20557;-70
2021/10/23 14:18:47;;;;;;;2.40;1.97;;;12.90;99.90;;;;;;5070111;28;20477;-69
2021/10/23 14:21:14;;;;;;;2.37;1.80;;;12.80;99.90;;;;;;5070288;28;20450;-68
2021/10/23 14:23:41;;;;;;;3.20;2.60;;;12.70;99.90;;;;;;5070152;28;20458;-69
2021/10/23 14:26:08;;;;;;;5.33;3.13;;;12.70;99.90;;;;;;5066086;28;20490;-69
2021/10/23 14:28:40;;;;;;;5.67;2.50;;;12.60;99.90;;;;;;5068529;28;20466;-68
2021/10/23 14:31:07;;;;;;;3.78;1.95;;;12.80;99.90;;;;;;5070934;28;20462;-68
2021/10/23 14:33:34;;;;;;;3.87;1.97;;;12.80;99.90;;;;;;5070376;28;20367;-69
2021/10/23 14:36:02;;;;;;;4.47;2.10;;;12.80;99.90;;;;;;5070715;28;20713;-69
2021/10/23 14:38:29;;;;;;;3.20;1.97;;;12.60;99.90;;;;;;5070574;28;20211;-68
2021/10/23 14:40:56;;;;;;;4.90;1.90;;;12.60;99.90;;;;;;5069739;28;20470;-69
2021/10/23 14:43:22;;;;;;;9.83;2.80;;;12.50;99.90;;;;;;5070380;28;20462;-69
2021/10/23 14:45:49;;;;;;;6.97;1.83;;;12.40;99.90;;;;;;5069322;28;21036;-69
2021/10/23 14:48:16;;;;;;;3.50;2.00;;;12.30;99.90;;;;;;5070176;28;20834;-69